logo
App data

Mystery P.I. - Lost in Los Angeles

Seek & Find the Hollywood Blockbuster! The only copy of this year's biggest blockbuster movie has gone missing the day before the VIP Hollywood premiere. You are the world famous Mystery P.I. and have been hired to track down and return the lost movie. Seek & Find over 2100 hidden objects in 25 stunning L.A.
Store | Hub | SteamDB
Developer: SpinTop Games Publisher: PopCap Games, Inc.
Genre: Casual
Languages: English
Tags: Casual (22), Hidden Object (8)
Category: Single-player
Release date: Jul 27, 2009
Price: $4.99
Owners: 20,000 .. 50,000
Followers: 56
Peak concurrent players yesterday: 5
Playtime total: 00:27 (average) 00:27 (median)

Steam Spy is still in beta, so expect major bugs.

Owners data:

Access restricted.

This feature is only available to users with special access rights. Sorry.

If you want to proceed, you need to register or log in first and then back Steam Spy on Patreon. Look for Indie or Pro pledge.

Don't forget to use the same email as on Steam Spy!

Audience in 2 weeks:

Access restricted.

This feature is only available to users with special access rights. Sorry.

If you want to proceed, you need to register or log in first and then back Steam Spy on Patreon. Look for Indie or Pro pledge.

Don't forget to use the same email as on Steam Spy!

Peak daily concurrent players:

CCU data courtesy of SteamDB. Used with permission.

Hourly concurrent players:

Daily Twitch stats:

Hourly Twitch stats:

YouTube:

The views data is based on top 50 videos uploaded last week. Actual number of views might be more than the number shown.

The displayed number of videos uploaded yesterday is limited to 50, so if there were more videos uploaded, the number will still show 50.

If the game has commonly used word as its name (like "FEAR" or "Volume") its number of Youtube views might be wrong.

Games similar to this one:

# Game Release date
Price
Score rank
(Userscore / Metascore)
Owners
Players
Playtime (Median)
1 Puppy Dog: Jigsaw Puzzles Jul 19, 2016 $1.99100% (100%)20,000 .. 50,0000.48%00:09 (00:03)
2 Legends of Atlantis: Exodus Sep 3, 2015 $6.99N/A (N/A)0 .. 20,0000%00:00 (00:00)
3 Tradewinds Classics Jul 17, 2009 $4.99N/A (N/A)0 .. 20,0000%00:00 (00:00)
4 Peggle Nights Oct 15, 2008 $4.9990% (94%/76%)200,000 .. 500,0000.6%01:10 (00:23)
5 Chuzzle Deluxe Aug 30, 2006 $4.9987% (93%)50,000 .. 100,0000%00:00 (00:00)
6 Princess Maker 2 Refine Sep 28, 2016 $19.9984% (92%)20,000 .. 50,0003.13%05:50 (01:56)
7 YOU DON’T KNOW JACK Feb 8, 2011 N/A84% (92%/71%)0 .. 20,0000%00:00 (00:00)
8 Gnomes Garden 2 May 18, 2016 $4.99N/A (N/A)20,000 .. 50,0000%00:00 (00:00)
9 Zuma Deluxe Aug 30, 2006 $4.9984% (92%)50,000 .. 100,0005.56%01:02 (01:05)
10 Kitty Cat: Jigsaw Puzzles Jul 18, 2016 $1.9980% (91%)50,000 .. 100,0000%00:00 (00:00)
11 Hidden Object Bundle 4 in 1 Oct 6, 2015 $7.9980% (91%)20,000 .. 50,0000%00:00 (00:00)
12 Gemini Lost Sep 24, 2009 $6.99N/A (N/A)0 .. 20,0000%00:00 (00:00)
13 Bejeweled 2 Deluxe Aug 30, 2006 $4.9977% (90%)50,000 .. 100,0000%00:00 (00:00)
14 Putt-Putt and Fatty Bear's Activity Pack May 15, 2014 $4.99N/A (N/A)20,000 .. 50,0002.33%00:01 (00:00)
15 Alice's Patchwork Mar 3, 2016 $4.9974% (89%)20,000 .. 50,0000.45%02:06 (00:42)
16 Puzzler World May 28, 2010 $4.9971% (88%)50,000 .. 100,0000.9%01:45 (00:35)
17 Stikbold! A Dodgeball Adventure Apr 1, 2016 $9.9971% (88%)50,000 .. 100,0000%00:00 (00:00)
18 Luxor 3 Nov 13, 2007 $9.9971% (88%)20,000 .. 50,0000%00:00 (00:00)
19 Mr Nibbles Forever Apr 29, 2016 $0.99N/A (N/A)0 .. 20,0000%00:00 (00:00)
20 Baseball Mogul 2015 Jul 24, 2015 $4.99N/A (N/A)20,000 .. 50,0000%00:00 (00:00)
21 Shufflepuck Cantina Deluxe Dec 6, 2013 $9.9971% (88%)100,000 .. 200,0000%00:00 (00:00)
22 Big Thinkers 1st Grade Aug 18, 2015 $6.99N/A (N/A)0 .. 20,0000%00:00 (00:00)
23 Space Codex May 17, 2016 $0.9963% (85%)100,000 .. 200,0000%00:00 (00:00)
24 Brink of Consciousness: The Lonely Hearts Murders Nov 24, 2014 $9.9963% (85%)0 .. 20,0000%00:00 (00:00)
25 Among the Heavens Nov 6, 2015 $2.9963% (85%)50,000 .. 100,0000%00:00 (00:00)
26 Hidden Object 6-in-1 bundle Mar 16, 2016 $11.9963% (85%)20,000 .. 50,0000%00:00 (00:00)
27 Pretty Girls Panic! Dec 19, 2016 $1.9963% (85%)20,000 .. 50,0001.27%00:03 (00:01)
28 Little Racers STREET Feb 6, 2014 $5.9961% (84%/62%)100,000 .. 200,0001.69%04:42 (04:36)
29 Cranky Cat Jun 5, 2013 $2.99N/A (N/A)0 .. 20,0000%00:00 (00:00)
30 BasketBelle Dec 9, 2014 $4.9958% (83%)0 .. 20,0000%00:00 (00:00)
31 Urban Trial Freestyle Sep 18, 2013 $6.9956% (82%/58%)100,000 .. 200,0000%00:00 (00:00)
32 My Riding Stables: Life with Horses Mar 27, 2014 $14.9956% (82%)0 .. 20,0008.33%00:02 (00:00)
33 Gnomes Garden Dec 18, 2015 $4.9956% (82%)20,000 .. 50,0000%00:00 (00:00)
34 Crash Dive Jul 6, 2015 $6.9954% (81%)0 .. 20,0000%00:00 (00:00)
35 Venice Deluxe Jun 26, 2007 $4.99N/A (N/A)20,000 .. 50,0000%00:00 (00:00)
36 Combat Wings: Battle of Britain Oct 14, 2009 $0.7454% (81%)100,000 .. 200,0000.51%00:21 (00:07)
37 Radial-G : Racing Revolved Mar 28, 2016 $9.9952% (80%)0 .. 20,0000%00:00 (00:00)
38 7 Wonders: Treasures of Seven Nov 14, 2008 $9.9952% (80%)20,000 .. 50,0000%00:00 (00:00)
39 Mahjong Destiny Jun 17, 2016 $2.9952% (80%)50,000 .. 100,0000%00:00 (00:00)
40 The Wizard's Pen Feb 18, 2009 $4.99N/A (N/A)20,000 .. 50,0000%00:00 (00:00)
41 Rotastic Oct 11, 2012 $9.99N/A (N/A)0 .. 20,0000%00:00 (00:00)
42 Crash Time 3 Nov 25, 2009 $5.9952% (80%)20,000 .. 50,0000%00:00 (00:00)
43 Qvadriga Jun 13, 2014 $19.9949% (79%/72%)20,000 .. 50,0000%00:00 (00:00)
44 Typer Shark! Deluxe Aug 30, 2006 $4.9949% (79%)20,000 .. 50,0000%00:00 (00:00)
45 Sea Legends: Phantasmal Light Collector's Edition Sep 17, 2014 $4.9947% (78%)20,000 .. 50,0000%00:00 (00:00)
46 Hotel Dash Suite Success Dec 24, 2009 $6.99N/A (N/A)0 .. 20,0000%00:00 (00:00)
47 Elementary My Dear Majesty! Apr 16, 2015 $0.9944% (76%)50,000 .. 100,0000%00:00 (00:00)
48 Pretty Girls Mahjong Solitaire Aug 24, 2015 $4.9942% (75%)20,000 .. 50,0001.04%00:01 (00:00)
49 Runaway Express Mystery Sep 23, 2014 $6.99N/A (N/A)0 .. 20,0000%00:00 (00:00)
50 Toilet Tycoon Sep 17, 2015 $4.9942% (75%)0 .. 20,0000%00:00 (00:00)
51 Zombie Solitaire Jul 3, 2014 $8.9940% (74%)20,000 .. 50,0000%00:00 (00:00)
52 Amazing Adventures Around the World Sep 17, 2008 $4.99N/A (N/A)20,000 .. 50,0000%00:00 (00:00)
53 Vehicle Simulator Dec 9, 2015 $2040% (74%)0 .. 20,0000%00:00 (00:00)
54 Home Design 3D Nov 20, 2015 $9.9940% (74%)20,000 .. 50,0000.78%00:05 (00:01)
55 Ski Region Simulator - Gold Edition Jan 31, 2014 $8.9938% (73%)20,000 .. 50,0000%00:00 (00:00)
56 Evolution Planet: Gold Edition Jul 7, 2016 $4.99N/A (N/A)0 .. 20,0000%00:00 (00:00)
57 StuntMANIA Reloaded Nov 13, 2014 $4.9936% (72%)20,000 .. 50,0000%00:00 (00:00)
58 Cooking Dash Aug 12, 2009 $9.99N/A (N/A)0 .. 20,0000%00:00 (00:00)
59 Football Mogul 2014 May 28, 2015 $0.99N/A (N/A)20,000 .. 50,0000%00:00 (00:00)
60 Mystery P.I. - The Lottery Ticket Oct 16, 2007 $4.99N/A (N/A)20,000 .. 50,0000%00:00 (00:00)
61 aerofly RC 7 Nov 6, 2014 $39.9933% (70%)0 .. 20,0000%00:00 (00:00)
62 Diner Mania Jun 25, 2015 $3.9931% (69%)0 .. 20,0000%00:00 (00:00)
63 MiniDrivers Aug 31, 2015 $5.9931% (69%)20,000 .. 50,0000%00:00 (00:00)
64 Chocolatier: Decadence by Design Aug 12, 2009 $9.9930% (68%)0 .. 20,0000%00:00 (00:00)
65 Polaris Sector Mar 22, 2016 $39.9930% (68%/76%)0 .. 20,0000%00:00 (00:00)
66 Mystery P.I. - The Vegas Heist Jun 4, 2008 $4.99N/A (N/A)20,000 .. 50,0000%00:00 (00:00)
67 PAC-MAN CHAMPIONSHIP EDITION 2 Sep 13, 2016 $12.9924% (64%)50,000 .. 100,0000%00:00 (00:00)
68 Luxor Jun 10, 2008 $9.99N/A (N/A)0 .. 20,0000%00:00 (00:00)
69 Pro Cycling Manager 2014 Jun 19, 2014 $9.9924% (64%)20,000 .. 50,0000%00:00 (00:00)
70 City Life 2008 Jul 18, 2008 $9.9924% (64%)20,000 .. 50,0000%00:00 (00:00)
71 Jane Angel: Templar Mystery Sep 17, 2014 $4.99N/A (N/A)20,000 .. 50,0000%00:00 (00:00)
72 Castle: Never Judge a Book by its Cover Jun 9, 2014 N/A23% (63%)50,000 .. 100,0000%00:00 (00:00)
73 Bridge It + Nov 18, 2013 $6.9923% (63%)20,000 .. 50,0000%00:00 (00:00)
74 Aerofly FS 1 Flight Simulator Oct 17, 2012 $19.9922% (62%)0 .. 20,0000%00:00 (00:00)
75 Meridian: Age of Invention Sep 30, 2015 $2.9921% (61%)20,000 .. 50,0000%00:00 (00:00)
76 Air Conflicts: Secret Wars Sep 30, 2011 $5.9921% (61%/65%)50,000 .. 100,0000%00:00 (00:00)
77 DinerTown Tycoon Sep 30, 2009 $9.99N/A (N/A)0 .. 20,0000%00:00 (00:00)
78 Zooloretto Apr 3, 2014 $2.99N/A (N/A)0 .. 20,0002.17%00:08 (00:02)
79 Cities in Motion 2 Apr 2, 2013 $19.9917% (58%/72%)500,000 .. 1,000,0000.8%04:07 (02:05)
80 Solitaire Christmas. Match 2 Cards Dec 24, 2015 $4.9917% (58%)20,000 .. 50,0000%00:00 (00:00)
81 Hacker Evolution: Untold Sep 14, 2010 $4.9917% (58%)200,000 .. 500,0000%00:00 (00:00)
82 Riding Star - Horse Championship! Mar 27, 2014 $9.99N/A (N/A)0 .. 20,0000%00:00 (00:00)
83 Kumoon : Ballistic Physics Puzzle Nov 10, 2015 $2.9915% (55%)0 .. 20,0000%00:00 (00:00)
84 Mystery P.I. - The New York Fortune Jan 14, 2009 $4.99N/A (N/A)20,000 .. 50,0000%00:00 (00:00)
85 Pacific Storm Allies May 25, 2007 $7.9913% (53%/60%)50,000 .. 100,0000%00:00 (00:00)
86 Poker Pretty Girls Battle: Texas Hold'em Oct 21, 2015 $9.9913% (52%)20,000 .. 50,0000%00:00 (00:00)
87 Luxor: Quest for the Afterlife Dec 15, 2008 $9.99N/A (N/A)20,000 .. 50,0000.78%01:56 (00:38)
88 Speed Kills May 16, 2014 $9.9913% (52%)200,000 .. 500,0000.15%01:30 (00:30)
89 Firefighters 2014 May 21, 2014 $19.9911% (50%)50,000 .. 100,0000%00:00 (00:00)
90 Ludo Supremo Jun 8, 2016 $2.9911% (50%)20,000 .. 50,0000%00:00 (00:00)
91 300 Dwarves Jun 5, 2014 $6.9911% (49%)0 .. 20,0000%00:00 (00:00)
92 EVEREST VR Aug 2, 2016 $9.9910% (47%)0 .. 20,0000%00:00 (00:00)
93 Shannon Tweed's Attack Of The Groupies Apr 1, 2014 $4.99N/A (N/A)0 .. 20,0000%00:00 (00:00)
94 Lords of Football Apr 5, 2013 $14.999% (46%/52%)20,000 .. 50,0000%00:00 (00:00)
95 Transport Giant Sep 5, 2014 $9.999% (45%)100,000 .. 200,0000%00:00 (00:00)
96 Theme Park Studio Dec 2, 2016 $29.998% (44%)0 .. 20,0000%00:00 (00:00)
97 Luxor 2 Dec 8, 2005 $9.99N/A (N/A)0 .. 20,0000%00:00 (00:00)
98 Ship Simulator: Maritime Search and Rescue Jul 1, 2014 $17.997% (42%)20,000 .. 50,0000%00:00 (00:00)
99 Silent Hunter 5: Battle of the Atlantic Mar 2010 $9.997% (41%/62%)50,000 .. 100,0002.13%00:01 (00:00)
100 Echelon Jul 3, 2014 $3.996% (39%/70%)0 .. 20,0000%00:00 (00:00)
101 RECYCLE Sep 3, 2014 $9.996% (38%)20,000 .. 50,0000%00:00 (00:00)
102 Firefighters - The Simulation Aug 31, 2016 $14.99N/A (N/A)0 .. 20,0000%00:00 (00:00)
103 Diner Dash: Hometown Hero Aug 12, 2009 $9.994% (32%)0 .. 20,0000%00:00 (00:00)
104 Industry Empire Jul 30, 2014 $19.994% (31%)20,000 .. 50,00011.11%00:30 (00:10)
105 Tetris Ultimate Dec 10, 2015 $14.993% (30%)20,000 .. 50,0000%00:00 (00:00)
106 City Play May 19, 2016 $3.99N/A (N/A)0 .. 20,0000%00:00 (00:00)
107 The Terminal 2 Aug 8, 2014 $4.992% (24%)0 .. 20,0000%00:00 (00:00)
108 G-Ball May 28, 2014 $0.992% (20%)0 .. 20,0000%00:00 (00:00)
109 Airline Tycoon 2 Oct 24, 2011 $9.992% (16%/57%)100,000 .. 200,0000%00:00 (00:00)
110 The Flying Dutchman Sep 12, 2014 $4.991% (3%)0 .. 20,0000%00:00 (00:00)
111 Tropical Fish Shop 2 Mar 9, 2016 $3.99N/A (N/A)0 .. 20,0000%00:00 (00:00)
112 Nokori Mar 25, 2016 $1.99N/A (N/A)0 .. 20,0000%00:00 (00:00)
113 Fantastic 4 In A Row 2 Aug 15, 2016 $1.99N/A (N/A)50,000 .. 100,0000%00:00 (00:00)
114 Discovery! A Seek and Find Adventure Jul 29, 2008 $9.99N/A (N/A)0 .. 20,0000%00:00 (00:00)
115 Bayla Bunny Jun 13, 2016 $2.99N/A (N/A)50,000 .. 100,0000%00:00 (00:00)
116 Dessert Storm Oct 23, 2016 $1.99N/A (N/A)50,000 .. 100,0000%00:00 (00:00)
117 Bubble Blowout Oct 24, 2016 $1.99N/A (N/A)20,000 .. 50,0000%00:00 (00:00)
118 Chainz 2: Relinked Jul 13, 2009 $9.99N/A (N/A)0 .. 20,0000%00:00 (00:00)
119 Barnyard Mahjong 3 Jul 29, 2016 $4.99N/A (N/A)50,000 .. 100,0000%00:00 (00:00)
120 Them - The Summoning May 16, 2014 $4.99N/A (N/A)0 .. 20,0000%00:00 (00:00)
121 TriJinx: A Kristine Kross Mystery Dec 31, 2007 $6.99N/A (N/A)0 .. 20,0000%00:00 (00:00)
122 Rush for gold: California Mar 9, 2016 $3.99N/A (N/A)50,000 .. 100,0000%00:00 (00:00)
123 The Hidden Dragon Jul 26, 2016 $4.99N/A (N/A)0 .. 20,0000%00:00 (00:00)

Tags over time:

Access restricted.

This feature is only available to users with special access rights. Sorry.

If you want to proceed, you need to register or log in first and then back Steam Spy on Patreon. Look for Indie or Pro pledge.

Don't forget to use the same email as on Steam Spy!

Owners of this game also own:

Access restricted.

This feature is only available to users with special access rights. Sorry.

If you want to proceed, you need to register or log in first and then back Steam Spy on Patreon. Look for Indie or Pro pledge.

Don't forget to use the same email as on Steam Spy!

Playtime distribution:

Access restricted.

This feature is only available to users with special access rights. Sorry.

If you want to proceed, you need to register or log in first and then back Steam Spy on Patreon. Look for Indie or Pro pledge.

Don't forget to use the same email as on Steam Spy!

Playtime (2 weeks):

Access restricted.

This feature is only available to users with special access rights. Sorry.

If you want to proceed, you need to register or log in first and then back Steam Spy on Patreon. Look for Indie or Pro pledge.

Don't forget to use the same email as on Steam Spy!

User reviews:

Login required.

Please register or log in to see this information.